sensor_id;sensor_type;location;lat;lon;timestamp;pressure;altitude;pressure_sealevel;temperature;humidity
40992;BME280;29633;49.168;9.848;2023-05-09T00:01:45;97171.16;;;19.10;68.04
40992;BME280;29633;49.168;9.848;2023-05-09T00:04:10;97162.44;;;19.10;67.96
40992;BME280;29633;49.168;9.848;2023-05-09T00:06:36;97159.19;;;19.08;68.30
40992;BME280;29633;49.168;9.848;2023-05-09T00:09:02;97156.53;;;19.08;68.25
40992;BME280;29633;49.168;9.848;2023-05-09T00:11:29;97158.34;;;19.07;68.30
40992;BME280;29633;49.168;9.848;2023-05-09T00:13:55;97154.06;;;19.06;68.10
40992;BME280;29633;49.168;9.848;2023-05-09T00:16:21;97151.28;;;19.08;67.95
40992;BME280;29633;49.168;9.848;2023-05-09T00:18:48;97152.28;;;19.07;68.29
40992;BME280;29633;49.168;9.848;2023-05-09T00:21:14;97147.19;;;19.05;68.22
40992;BME280;29633;49.168;9.848;2023-05-09T00:23:40;97150.81;;;19.04;68.10
40992;BME280;29633;49.168;9.848;2023-05-09T00:26:05;97138.81;;;19.02;68.36
40992;BME280;29633;49.168;9.848;2023-05-09T00:28:31;97143.06;;;19.03;68.36
40992;BME280;29633;49.168;9.848;2023-05-09T00:30:57;97137.50;;;18.98;68.38
40992;BME280;29633;49.168;9.848;2023-05-09T00:33:22;97139.31;;;18.97;67.94
40992;BME280;29633;49.168;9.848;2023-05-09T00:35:52;97132.91;;;19.00;68.23
40992;BME280;29633;49.168;9.848;2023-05-09T00:38:18;97137.19;;;19.01;68.13
40992;BME280;29633;49.168;9.848;2023-05-09T00:40:43;97128.47;;;19.00;67.96
40992;BME280;29633;49.168;9.848;2023-05-09T00:43:09;97129.44;;;18.99;68.04
40992;BME280;29633;49.168;9.848;2023-05-09T00:45:35;97122.56;;;18.98;68.16
40992;BME280;29633;49.168;9.848;2023-05-09T00:48:00;97120.94;;;18.97;68.04
40992;BME280;29633;49.168;9.848;2023-05-09T00:50:26;97122.72;;;18.97;68.48
40992;BME280;29633;49.168;9.848;2023-05-09T00:52:52;97117.81;;;18.94;68.47
40992;BME280;29633;49.168;9.848;2023-05-09T00:55:18;97117.81;;;18.94;68.13
40992;BME280;29633;49.168;9.848;2023-05-09T00:57:44;97108.28;;;18.93;68.41
40992;BME280;29633;49.168;9.848;2023-05-09T01:00:12;97111.72;;;18.93;68.37
40992;BME280;29633;49.168;9.848;2023-05-09T01:02:42;97100.09;;;18.88;68.27
40992;BME280;29633;49.168;9.848;2023-05-09T01:05:09;97112.75;;;18.84;68.30
40992;BME280;29633;49.168;9.848;2023-05-09T01:10:47;97104.53;;;18.79;68.56
40992;BME280;29633;49.168;9.848;2023-05-09T01:13:27;97101.09;;;18.79;68.36
40992;BME280;29633;49.168;9.848;2023-05-09T01:16:15;97096.66;;;18.79;68.40
40992;BME280;29633;49.168;9.848;2023-05-09T01:18:51;97093.19;;;18.79;68.65
40992;BME280;29633;49.168;9.848;2023-05-09T01:21:23;97089.09;;;18.76;68.49
40992;BME280;29633;49.168;9.848;2023-05-09T01:24:00;97087.66;;;18.74;68.59
40992;BME280;29633;49.168;9.848;2023-05-09T01:29:43;97084.34;;;18.72;68.71
40992;BME280;29633;49.168;9.848;2023-05-09T01:32:18;97075.63;;;18.71;68.36
40992;BME280;29633;49.168;9.848;2023-05-09T01:34:44;97081.91;;;18.70;68.32
40992;BME280;29633;49.168;9.848;2023-05-09T01:37:13;97078.59;;;18.68;68.60
40992;BME280;29633;49.168;9.848;2023-05-09T01:39:43;97072.22;;;18.62;68.59
40992;BME280;29633;49.168;9.848;2023-05-09T01:42:10;97077.47;;;18.62;68.62
40992;BME280;29633;49.168;9.848;2023-05-09T01:44:38;97076.81;;;18.60;68.34
40992;BME280;29633;49.168;9.848;2023-05-09T01:47:06;97079.75;;;18.57;68.38
40992;BME280;29633;49.168;9.848;2023-05-09T01:49:34;97084.38;;;18.55;68.21
40992;BME280;29633;49.168;9.848;2023-05-09T01:52:05;97087.16;;;18.54;68.20
40992;BME280;29633;49.168;9.848;2023-05-09T01:54:32;97086.34;;;18.53;68.26
40992;BME280;29633;49.168;9.848;2023-05-09T01:56:59;97083.06;;;18.51;68.35
40992;BME280;29633;49.168;9.848;2023-05-09T01:59:26;97083.88;;;18.52;68.19
40992;BME280;29633;49.168;9.848;2023-05-09T02:01:52;97091.06;;;18.50;68.31
40992;BME280;29633;49.168;9.848;2023-05-09T02:04:19;97095.66;;;18.48;68.17
40992;BME280;29633;49.168;9.848;2023-05-09T02:06:45;97091.25;;;18.48;68.12
40992;BME280;29633;49.168;9.848;2023-05-09T02:09:15;97089.59;;;18.47;68.35
40992;BME280;29633;49.168;9.848;2023-05-09T02:11:40;97081.72;;;18.47;68.13
40992;BME280;29633;49.168;9.848;2023-05-09T02:14:06;97077.44;;;18.46;68.43
40992;BME280;29633;49.168;9.848;2023-05-09T02:16:32;97083.66;;;18.45;68.33
40992;BME280;29633;49.168;9.848;2023-05-09T02:18:58;97083.84;;;18.44;68.19
40992;BME280;29633;49.168;9.848;2023-05-09T02:21:24;97081.56;;;18.41;68.34
40992;BME280;29633;49.168;9.848;2023-05-09T02:23:49;97075.81;;;18.37;68.42
40992;BME280;29633;49.168;9.848;2023-05-09T02:26:15;97078.09;;;18.32;68.56
40992;BME280;29633;49.168;9.848;2023-05-09T02:28:41;97072.22;;;18.30;68.49
40992;BME280;29633;49.168;9.848;2023-05-09T02:31:08;97077.94;;;18.26;68.43
40992;BME280;29633;49.168;9.848;2023-05-09T02:33:36;97080.91;;;18.23;68.51
40992;BME280;29633;49.168;9.848;2023-05-09T02:36:02;97080.41;;;18.19;68.20
40992;BME280;29633;49.168;9.848;2023-05-09T02:38:29;97083.16;;;18.17;68.59
40992;BME280;29633;49.168;9.848;2023-05-09T02:40:54;97080.41;;;18.19;68.30
40992;BME280;29633;49.168;9.848;2023-05-09T02:43:20;97075.31;;;18.17;68.50
40992;BME280;29633;49.168;9.848;2023-05-09T02:45:46;97071.22;;;18.15;68.21
40992;BME280;29633;49.168;9.848;2023-05-09T02:48:12;97072.19;;;18.14;68.60
40992;BME280;29633;49.168;9.848;2023-05-09T02:50:37;97074.97;;;18.12;68.28
40992;BME280;29633;49.168;9.848;2023-05-09T02:53:04;97068.91;;;18.12;68.45
40992;BME280;29633;49.168;9.848;2023-05-09T02:55:29;97067.91;;;18.13;68.38
40992;BME280;29633;49.168;9.848;2023-05-09T02:57:56;97071.34;;;18.13;68.08
40992;BME280;29633;49.168;9.848;2023-05-09T03:00:21;97065.28;;;18.13;68.44
40992;BME280;29633;49.168;9.848;2023-05-09T03:02:50;97063.66;;;18.12;68.33
40992;BME280;29633;49.168;9.848;2023-05-09T03:05:16;97064.47;;;18.12;68.23
40992;BME280;29633;49.168;9.848;2023-05-09T03:07:42;97057.41;;;18.13;68.38
40992;BME280;29633;49.168;9.848;2023-05-09T03:10:09;97062.66;;;18.13;68.07
40992;BME280;29633;49.168;9.848;2023-05-09T03:12:37;97064.31;;;18.14;68.03
40992;BME280;29633;49.168;9.848;2023-05-09T03:15:06;97066.28;;;18.12;68.03
40992;BME280;29633;49.168;9.848;2023-05-09T03:17:32;97063.97;;;18.09;68.18
40992;BME280;29633;49.168;9.848;2023-05-09T03:19:58;97063.16;;;18.08;68.35
40992;BME280;29633;49.168;9.848;2023-05-09T03:22:23;97066.91;;;18.06;68.20
40992;BME280;29633;49.168;9.848;2023-05-09T03:24:49;97060.22;;;18.03;68.05
40992;BME280;29633;49.168;9.848;2023-05-09T03:27:15;97061.84;;;18.04;68.08
40992;BME280;29633;49.168;9.848;2023-05-09T03:29:40;97055.78;;;18.04;68.11
40992;BME280;29633;49.168;9.848;2023-05-09T03:32:06;97056.94;;;18.01;68.03
40992;BME280;29633;49.168;9.848;2023-05-09T03:34:31;97058.06;;;17.99;68.03
40992;BME280;29633;49.168;9.848;2023-05-09T03:36:57;97047.56;;;17.99;68.03
40992;BME280;29633;49.168;9.848;2023-05-09T03:39:23;97042.66;;;17.96;68.10
40992;BME280;29633;49.168;9.848;2023-05-09T03:41:49;97052.50;;;17.94;68.03
40992;BME280;29633;49.168;9.848;2023-05-09T03:44:14;97049.19;;;17.92;68.05
40992;BME280;29633;49.168;9.848;2023-05-09T03:46:40;97044.78;;;17.92;68.12
40992;BME280;29633;49.168;9.848;2023-05-09T03:49:06;97056.09;;;17.93;68.24
40992;BME280;29633;49.168;9.848;2023-05-09T03:51:31;97050.16;;;17.91;68.10
40992;BME280;29633;49.168;9.848;2023-05-09T03:53:57;97043.47;;;17.88;67.91
40992;BME280;29633;49.168;9.848;2023-05-09T03:56:23;97041.00;;;17.87;68.20
40992;BME280;29633;49.168;9.848;2023-05-09T03:58:48;97038.53;;;17.85;68.09
40992;BME280;29633;49.168;9.848;2023-05-09T04:01:14;97031.81;;;17.83;68.05
40992;BME280;29633;49.168;9.848;2023-05-09T04:03:40;97031.16;;;17.81;68.05
40992;BME280;29633;49.168;9.848;2023-05-09T04:06:06;97028.84;;;17.78;68.05
40992;BME280;29633;49.168;9.848;2023-05-09T04:08:32;97032.63;;;17.75;67.80
40992;BME280;29633;49.168;9.848;2023-05-09T04:10:57;97029.34;;;17.73;67.77
40992;BME280;29633;49.168;9.848;2023-05-09T04:13:23;97026.22;;;17.69;67.80
40992;BME280;29633;49.168;9.848;2023-05-09T04:15:49;97030.13;;;17.65;67.93
40992;BME280;29633;49.168;9.848;2023-05-09T04:18:15;97030.31;;;17.64;67.85
40992;BME280;29633;49.168;9.848;2023-05-09T04:20:41;97031.47;;;17.61;68.00
40992;BME280;29633;49.168;9.848;2023-05-09T04:23:06;97033.25;;;17.61;67.98
40992;BME280;29633;49.168;9.848;2023-05-09T04:25:32;97043.25;;;17.57;67.93
40992;BME280;29633;49.168;9.848;2023-05-09T04:27:59;97038.13;;;17.56;67.81
40992;BME280;29633;49.168;9.848;2023-05-09T04:30:25;97045.97;;;17.56;67.96
40992;BME280;29633;49.168;9.848;2023-05-09T04:32:53;97040.63;;;17.57;67.86
40992;BME280;29633;49.168;9.848;2023-05-09T04:35:20;97043.34;;;17.56;67.83
40992;BME280;29633;49.168;9.848;2023-05-09T04:37:46;97049.47;;;17.56;67.98
40992;BME280;29633;49.168;9.848;2023-05-09T04:40:11;97038.13;;;17.56;67.79
40992;BME280;29633;49.168;9.848;2023-05-09T04:42:37;97043.25;;;17.57;67.91
40992;BME280;29633;49.168;9.848;2023-05-09T04:45:05;97037.47;;;17.54;67.90
40992;BME280;29633;49.168;9.848;2023-05-09T04:47:31;97039.09;;;17.55;67.64
40992;BME280;29633;49.168;9.848;2023-05-09T04:49:57;97042.84;;;17.52;67.69
40992;BME280;29633;49.168;9.848;2023-05-09T04:52:22;97037.75;;;17.51;67.74
40992;BME280;29633;49.168;9.848;2023-05-09T04:54:48;97027.13;;;17.52;67.97
40992;BME280;29633;49.168;9.848;2023-05-09T04:57:14;97029.75;;;17.52;67.91
40992;BME280;29633;49.168;9.848;2023-05-09T04:59:40;97035.81;;;17.53;67.88
40992;BME280;29633;49.168;9.848;2023-05-09T05:02:05;97030.72;;;17.51;67.65
40992;BME280;29633;49.168;9.848;2023-05-09T05:04:31;97038.44;;;17.53;67.88
40992;BME280;29633;49.168;9.848;2023-05-09T05:06:57;97036.66;;;17.53;67.74
40992;BME280;29633;49.168;9.848;2023-05-09T05:09:22;97050.72;;;17.52;67.83
40992;BME280;29633;49.168;9.848;2023-05-09T05:11:48;97041.88;;;17.53;67.60
40992;BME280;29633;49.168;9.848;2023-05-09T05:14:14;97041.06;;;17.53;67.46
40992;BME280;29633;49.168;9.848;2023-05-09T05:16:40;97041.22;;;17.51;67.81
40992;BME280;29633;49.168;9.848;2023-05-09T05:19:05;97036.16;;;17.50;67.79
40992;BME280;29633;49.168;9.848;2023-05-09T05:21:31;97033.53;;;17.50;67.81
40992;BME280;29633;49.168;9.848;2023-05-09T05:23:57;97032.00;;;17.47;67.92
40992;BME280;29633;49.168;9.848;2023-05-09T05:26:22;97032.00;;;17.47;67.70
40992;BME280;29633;49.168;9.848;2023-05-09T05:28:50;97038.91;;;17.48;67.93
40992;BME280;29633;49.168;9.848;2023-05-09T05:31:20;97038.75;;;17.50;67.80
40992;BME280;29633;49.168;9.848;2023-05-09T05:33:46;97032.53;;;17.51;67.66
40992;BME280;29633;49.168;9.848;2023-05-09T05:36:11;97035.00;;;17.52;67.63
40992;BME280;29633;49.168;9.848;2023-05-09T05:38:37;97032.03;;;17.55;67.58
40992;BME280;29633;49.168;9.848;2023-05-09T05:41:03;97028.47;;;17.56;67.54
40992;BME280;29633;49.168;9.848;2023-05-09T05:43:28;97027.50;;;17.57;67.83
40992;BME280;29633;49.168;9.848;2023-05-09T05:45:56;97025.72;;;17.58;67.69
40992;BME280;29633;49.168;9.848;2023-05-09T05:48:22;97032.44;;;17.60;67.59
40992;BME280;29633;49.168;9.848;2023-05-09T05:50:48;97029.81;;;17.60;67.74
40992;BME280;29633;49.168;9.848;2023-05-09T05:53:13;97031.28;;;17.63;67.61
40992;BME280;29633;49.168;9.848;2023-05-09T05:55:39;97021.94;;;17.60;67.64
40992;BME280;29633;49.168;9.848;2023-05-09T05:58:04;97018.34;;;17.61;67.53
40992;BME280;29633;49.168;9.848;2023-05-09T06:00:30;97023.41;;;17.63;67.56
40992;BME280;29633;49.168;9.848;2023-05-09T06:02:56;97026.53;;;17.66;67.57
40992;BME280;29633;49.168;9.848;2023-05-09T06:05:21;97019.34;;;17.68;67.67
40992;BME280;29633;49.168;9.848;2023-05-09T06:07:47;97014.91;;;17.69;67.51
40992;BME280;29633;49.168;9.848;2023-05-09T06:10:12;97018.00;;;17.73;67.76
40992;BME280;29633;49.168;9.848;2023-05-09T06:12:40;97007.72;;;17.71;67.76
40992;BME280;29633;49.168;9.848;2023-05-09T06:15:06;97013.44;;;17.75;67.78
40992;BME280;29633;49.168;9.848;2023-05-09T06:17:32;97004.28;;;17.79;67.46
40992;BME280;29633;49.168;9.848;2023-05-09T06:19:58;97009.03;;;17.83;67.64
40992;BME280;29633;49.168;9.848;2023-05-09T06:22:23;97007.88;;;17.86;67.68
40992;BME280;29633;49.168;9.848;2023-05-09T06:24:49;97004.13;;;17.88;67.38
40992;BME280;29633;49.168;9.848;2023-05-09T06:27:15;97007.41;;;17.90;67.47
40992;BME280;29633;49.168;9.848;2023-05-09T06:29:41;97006.41;;;17.91;67.53
40992;BME280;29633;49.168;9.848;2023-05-09T06:32:06;97001.66;;;17.95;67.38
40992;BME280;29633;49.168;9.848;2023-05-09T06:34:32;97003.94;;;17.98;67.35
40992;BME280;29633;49.168;9.848;2023-05-09T06:36:57;96999.38;;;18.00;67.36
40992;BME280;29633;49.168;9.848;2023-05-09T06:39:23;96991.16;;;18.03;67.63
40992;BME280;29633;49.168;9.848;2023-05-09T06:41:49;96985.59;;;18.06;67.39
40992;BME280;29633;49.168;9.848;2023-05-09T06:44:14;96977.38;;;18.09;67.48
40992;BME280;29633;49.168;9.848;2023-05-09T06:46:40;96979.72;;;18.12;67.19
40992;BME280;29633;49.168;9.848;2023-05-09T06:49:05;96983.63;;;18.16;67.39
40992;BME280;29633;49.168;9.848;2023-05-09T06:51:31;96976.22;;;18.19;67.30
40992;BME280;29633;49.168;9.848;2023-05-09T06:53:57;96977.88;;;18.20;67.34
40992;BME280;29633;49.168;9.848;2023-05-09T06:56:22;96966.41;;;18.22;67.58
40992;BME280;29633;49.168;9.848;2023-05-09T06:58:49;96968.53;;;18.26;67.13
40992;BME280;29633;49.168;9.848;2023-05-09T07:01:15;96969.84;;;18.30;67.16
40992;BME280;29633;49.168;9.848;2023-05-09T07:03:42;96965.09;;;18.34;67.22
40992;BME280;29633;49.168;9.848;2023-05-09T07:06:07;96961.59;;;18.41;67.19
40992;BME280;29633;49.168;9.848;2023-05-09T07:08:33;96959.16;;;18.48;67.29
40992;BME280;29633;49.168;9.848;2023-05-09T07:10:59;96958.50;;;18.54;66.96
40992;BME280;29633;49.168;9.848;2023-05-09T07:13:24;96950.97;;;18.59;67.16
40992;BME280;29633;49.168;9.848;2023-05-09T07:15:50;96946.00;;;18.64;67.06
40992;BME280;29633;49.168;9.848;2023-05-09T07:18:16;96936.66;;;18.70;67.23
40992;BME280;29633;49.168;9.848;2023-05-09T07:20:41;96942.84;;;18.77;67.03
40992;BME280;29633;49.168;9.848;2023-05-09T07:23:07;96940.69;;;18.80;67.02
40992;BME280;29633;49.168;9.848;2023-05-09T07:25:33;96930.31;;;18.87;66.80
40992;BME280;29633;49.168;9.848;2023-05-09T07:27:58;96930.66;;;18.92;66.87
40992;BME280;29633;49.168;9.848;2023-05-09T07:30:24;96929.94;;;18.98;66.96
40992;BME280;29633;49.168;9.848;2023-05-09T07:32:50;96921.88;;;18.99;67.13
40992;BME280;29633;49.168;9.848;2023-05-09T07:35:17;96928.09;;;19.06;66.74
40992;BME280;29633;49.168;9.848;2023-05-09T07:37:42;96923.63;;;19.15;66.88
40992;BME280;29633;49.168;9.848;2023-05-09T07:40:08;96920.94;;;19.23;66.70
40992;BME280;29633;49.168;9.848;2023-05-09T07:42:34;96919.25;;;19.30;66.55
40992;BME280;29633;49.168;9.848;2023-05-09T07:45:00;96925.47;;;19.37;66.82
40992;BME280;29633;49.168;9.848;2023-05-09T07:47:26;96934.31;;;19.44;66.67
40992;BME280;29633;49.168;9.848;2023-05-09T07:49:51;96930.00;;;19.51;66.59
40992;BME280;29633;49.168;9.848;2023-05-09T07:52:17;96931.75;;;19.59;66.97
40992;BME280;29633;49.168;9.848;2023-05-09T07:54:43;96924.63;;;19.68;66.67
40992;BME280;29633;49.168;9.848;2023-05-09T07:57:09;96921.91;;;19.76;66.74
40992;BME280;29633;49.168;9.848;2023-05-09T07:59:35;96915.78;;;19.83;66.48
40992;BME280;29633;49.168;9.848;2023-05-09T08:02:00;96915.88;;;19.90;66.45
40992;BME280;29633;49.168;9.848;2023-05-09T08:04:26;96899.41;;;19.96;66.71
40992;BME280;29633;49.168;9.848;2023-05-09T08:06:52;96905.59;;;20.03;66.31
40992;BME280;29633;49.168;9.848;2023-05-09T08:09:18;96905.31;;;20.12;66.59
40992;BME280;29633;49.168;9.848;2023-05-09T08:11:43;96888.63;;;20.20;66.32
40992;BME280;29633;49.168;9.848;2023-05-09T08:14:09;96892.66;;;20.31;66.32
40992;BME280;29633;49.168;9.848;2023-05-09T08:16:35;96886.34;;;20.40;66.44
40992;BME280;29633;49.168;9.848;2023-05-09T08:19:01;96880.78;;;20.49;66.00
40992;BME280;29633;49.168;9.848;2023-05-09T08:21:27;96877.03;;;20.58;66.34
40992;BME280;29633;49.168;9.848;2023-05-09T08:23:52;96871.50;;;20.68;66.11
40992;BME280;29633;49.168;9.848;2023-05-09T08:26:18;96864.88;;;20.72;66.43
40992;BME280;29633;49.168;9.848;2023-05-09T08:28:44;96857.66;;;20.81;66.04
40992;BME280;29633;49.168;9.848;2023-05-09T08:31:09;96860.81;;;20.91;66.29
40992;BME280;29633;49.168;9.848;2023-05-09T08:33:35;96857.47;;;20.97;66.18
40992;BME280;29633;49.168;9.848;2023-05-09T08:36:01;96852.25;;;21.03;65.73
40992;BME280;29633;49.168;9.848;2023-05-09T08:38:27;96856.97;;;21.08;66.16
40992;BME280;29633;49.168;9.848;2023-05-09T08:40:59;96853.25;;;21.17;65.93
40992;BME280;29633;49.168;9.848;2023-05-09T08:43:24;96846.03;;;21.26;65.96
40992;BME280;29633;49.168;9.848;2023-05-09T08:45:55;96837.44;;;21.38;65.81
40992;BME280;29633;49.168;9.848;2023-05-09T08:48:22;96832.03;;;21.46;65.92
40992;BME280;29633;49.168;9.848;2023-05-09T08:50:48;96832.91;;;21.53;65.96
40992;BME280;29633;49.168;9.848;2023-05-09T08:53:14;96828.31;;;21.62;65.51
40992;BME280;29633;49.168;9.848;2023-05-09T08:55:39;96831.19;;;21.67;65.92
40992;BME280;29633;49.168;9.848;2023-05-09T08:58:05;96826.53;;;21.69;65.70
40992;BME280;29633;49.168;9.848;2023-05-09T09:00:32;96824.94;;;21.75;65.88
40992;BME280;29633;49.168;9.848;2023-05-09T09:03:01;96827.47;;;21.83;65.59
40992;BME280;29633;49.168;9.848;2023-05-09T09:05:32;96828.31;;;21.90;65.95
40992;BME280;29633;49.168;9.848;2023-05-09T09:08:00;96820.28;;;21.98;65.78
40992;BME280;29633;49.168;9.848;2023-05-09T09:10:28;96814.22;;;22.04;65.57
40992;BME280;29633;49.168;9.848;2023-05-09T09:12:56;96810.84;;;22.10;65.48
40992;BME280;29633;49.168;9.848;2023-05-09T09:15:22;96813.69;;;22.15;65.48
40992;BME280;29633;49.168;9.848;2023-05-09T09:17:50;96810.47;;;22.20;65.56
40992;BME280;29633;49.168;9.848;2023-05-09T09:20:20;96807.88;;;22.26;65.48
40992;BME280;29633;49.168;9.848;2023-05-09T09:22:47;96803.00;;;22.30;65.25
40992;BME280;29633;49.168;9.848;2023-05-09T09:25:12;96800.41;;;22.36;65.16
40992;BME280;29633;49.168;9.848;2023-05-09T09:27:38;96794.34;;;22.42;65.32
40992;BME280;29633;49.168;9.848;2023-05-09T09:30:10;96781.34;;;22.47;65.02
40992;BME280;29633;49.168;9.848;2023-05-09T09:32:36;96777.13;;;22.53;65.34
40992;BME280;29633;49.168;9.848;2023-05-09T09:35:09;96766.97;;;22.56;65.06
40992;BME280;29633;49.168;9.848;2023-05-09T09:37:36;96759.06;;;22.63;65.09
40992;BME280;29633;49.168;9.848;2023-05-09T09:40:06;96760.16;;;22.75;65.01
40992;BME280;29633;49.168;9.848;2023-05-09T09:42:46;96761.16;;;22.81;65.09
40992;BME280;29633;49.168;9.848;2023-05-09T09:45:16;96750.19;;;22.84;64.87
40992;BME280;29633;49.168;9.848;2023-05-09T09:47:43;96743.91;;;22.91;64.95
40992;BME280;29633;49.168;9.848;2023-05-09T09:50:16;96750.00;;;22.98;64.98
40992;BME280;29633;49.168;9.848;2023-05-09T09:52:49;96747.59;;;23.03;64.93
40992;BME280;29633;49.168;9.848;2023-05-09T09:55:21;96738.44;;;23.06;64.65
40992;BME280;29633;49.168;9.848;2023-05-09T09:57:47;96742.09;;;23.12;64.52
40992;BME280;29633;49.168;9.848;2023-05-09T10:00:14;96735.19;;;23.17;64.58
40992;BME280;29633;49.168;9.848;2023-05-09T10:02:57;96737.00;;;23.23;64.61
40992;BME280;29633;49.168;9.848;2023-05-09T10:05:30;96735.41;;;23.29;64.71
40992;BME280;29633;49.168;9.848;2023-05-09T10:08:00;96724.19;;;23.33;64.23
40992;BME280;29633;49.168;9.848;2023-05-09T10:10:28;96720.34;;;23.36;64.36
40992;BME280;29633;49.168;9.848;2023-05-09T10:12:56;96722.38;;;23.40;64.45
40992;BME280;29633;49.168;9.848;2023-05-09T10:15:22;96719.53;;;23.42;64.42
40992;BME280;29633;49.168;9.848;2023-05-09T10:17:51;96714.25;;;23.48;64.28
40992;BME280;29633;49.168;9.848;2023-05-09T10:20:17;96709.75;;;23.56;64.26
40992;BME280;29633;49.168;9.848;2023-05-09T10:22:43;96700.38;;;23.60;64.14
40992;BME280;29633;49.168;9.848;2023-05-09T10:25:19;96695.09;;;23.66;63.95
40992;BME280;29633;49.168;9.848;2023-05-09T10:27:46;96695.09;;;23.73;64.11
40992;BME280;29633;49.168;9.848;2023-05-09T10:30:21;96695.69;;;23.75;64.26
40992;BME280;29633;49.168;9.848;2023-05-09T10:32:52;96698.53;;;23.80;64.13
40992;BME280;29633;49.168;9.848;2023-05-09T10:35:25;96683.03;;;23.83;63.80
40992;BME280;29633;49.168;9.848;2023-05-09T10:37:54;96691.38;;;23.87;64.00
40992;BME280;29633;49.168;9.848;2023-05-09T10:40:21;96687.31;;;23.91;63.76
40992;BME280;29633;49.168;9.848;2023-05-09T10:42:47;96682.38;;;24.01;63.73
40992;BME280;29633;49.168;9.848;2023-05-09T10:45:13;96676.22;;;24.07;63.56
40992;BME280;29633;49.168;9.848;2023-05-09T10:47:39;96677.88;;;24.15;64.03
40992;BME280;29633;49.168;9.848;2023-05-09T10:50:07;96677.84;;;24.21;63.62
40992;BME280;29633;49.168;9.848;2023-05-09T10:52:33;96672.09;;;24.24;63.72
40992;BME280;29633;49.168;9.848;2023-05-09T10:55:03;96669.25;;;24.26;63.82
40992;BME280;29633;49.168;9.848;2023-05-09T10:57:30;96668.84;;;24.29;63.37
40992;BME280;29633;49.168;9.848;2023-05-09T10:59:57;96656.59;;;24.34;63.40
40992;BME280;29633;49.168;9.848;2023-05-09T11:02:23;96648.22;;;24.37;63.51
40992;BME280;29633;49.168;9.848;2023-05-09T11:05:15;96657.94;;;24.43;63.56
40992;BME280;29633;49.168;9.848;2023-05-09T11:07:41;96643.69;;;24.44;63.46
40992;BME280;29633;49.168;9.848;2023-05-09T11:12:33;96645.66;;;24.56;63.17
40992;BME280;29633;49.168;9.848;2023-05-09T11:15:06;96634.00;;;24.63;63.39
40992;BME280;29633;49.168;9.848;2023-05-09T11:17:37;96633.94;;;24.70;63.30
40992;BME280;29633;49.168;9.848;2023-05-09T11:20:04;96629.41;;;24.77;63.23
40992;BME280;29633;49.168;9.848;2023-05-09T11:22:39;96617.53;;;24.79;63.02
40992;BME280;29633;49.168;9.848;2023-05-09T11:25:10;96612.63;;;24.83;63.21
40992;BME280;29633;49.168;9.848;2023-05-09T11:27:44;96611.78;;;24.89;63.14
40992;BME280;29633;49.168;9.848;2023-05-09T11:30:12;96609.50;;;24.92;63.23
40992;BME280;29633;49.168;9.848;2023-05-09T11:35:19;96602.00;;;24.83;63.08
40992;BME280;29633;49.168;9.848;2023-05-09T11:37:46;96597.34;;;24.85;63.03
40992;BME280;29633;49.168;9.848;2023-05-09T11:40:14;96582.78;;;24.94;63.11
40992;BME280;29633;49.168;9.848;2023-05-09T11:42:44;96586.41;;;25.00;63.15
40992;BME280;29633;49.168;9.848;2023-05-09T11:45:11;96574.09;;;25.05;63.19
40992;BME280;29633;49.168;9.848;2023-05-09T11:47:37;96583.03;;;25.11;62.96
40992;BME280;29633;49.168;9.848;2023-05-09T11:50:07;96572.38;;;25.17;62.89
40992;BME280;29633;49.168;9.848;2023-05-09T11:52:34;96565.59;;;25.21;62.81
40992;BME280;29633;49.168;9.848;2023-05-09T11:55:00;96563.69;;;25.28;62.72
40992;BME280;29633;49.168;9.848;2023-05-09T11:57:27;96557.94;;;25.31;62.63
40992;BME280;29633;49.168;9.848;2023-05-09T11:59:53;96549.72;;;25.33;62.62
40992;BME280;29633;49.168;9.848;2023-05-09T12:02:19;96549.06;;;25.37;62.60
40992;BME280;29633;49.168;9.848;2023-05-09T12:04:47;96546.94;;;25.46;62.70
40992;BME280;29633;49.168;9.848;2023-05-09T12:07:13;96543.03;;;25.48;62.64
40992;BME280;29633;49.168;9.848;2023-05-09T12:09:40;96538.31;;;25.51;62.50
40992;BME280;29633;49.168;9.848;2023-05-09T12:12:11;96542.41;;;25.53;62.54
40992;BME280;29633;49.168;9.848;2023-05-09T12:14:37;96538.03;;;25.59;62.33
40992;BME280;29633;49.168;9.848;2023-05-09T12:17:07;96528.81;;;25.61;62.28
40992;BME280;29633;49.168;9.848;2023-05-09T12:19:33;96532.28;;;25.62;62.39
40992;BME280;29633;49.168;9.848;2023-05-09T12:22:00;96518.44;;;25.60;62.40
40992;BME280;29633;49.168;9.848;2023-05-09T12:24:27;96515.53;;;25.61;62.42
40992;BME280;29633;49.168;9.848;2023-05-09T12:26:54;96520.63;;;25.63;62.32
40992;BME280;29633;49.168;9.848;2023-05-09T12:29:20;96514.97;;;25.59;62.32
40992;BME280;29633;49.168;9.848;2023-05-09T12:31:47;96509.06;;;25.57;62.20
40992;BME280;29633;49.168;9.848;2023-05-09T12:34:13;96507.56;;;25.61;62.21
40992;BME280;29633;49.168;9.848;2023-05-09T12:36:41;96503.31;;;25.60;62.11
40992;BME280;29633;49.168;9.848;2023-05-09T12:39:08;96497.19;;;25.60;62.29
40992;BME280;29633;49.168;9.848;2023-05-09T12:41:49;96494.09;;;25.63;62.08
40992;BME280;29633;49.168;9.848;2023-05-09T12:44:23;96490.53;;;25.69;61.79
40992;BME280;29633;49.168;9.848;2023-05-09T12:49:23;96485.94;;;25.76;61.71
40992;BME280;29633;49.168;9.848;2023-05-09T12:51:49;96476.72;;;25.78;61.81
40992;BME280;29633;49.168;9.848;2023-05-09T12:54:28;96471.53;;;25.83;61.64
40992;BME280;29633;49.168;9.848;2023-05-09T12:56:56;96471.88;;;25.87;61.58
40992;BME280;29633;49.168;9.848;2023-05-09T12:59:24;96466.16;;;25.90;61.83
40992;BME280;29633;49.168;9.848;2023-05-09T13:01:59;96463.84;;;25.93;61.90
40992;BME280;29633;49.168;9.848;2023-05-09T13:04:26;96452.97;;;25.95;61.81
40992;BME280;29633;49.168;9.848;2023-05-09T13:06:54;96451.28;;;26.01;61.57
40992;BME280;29633;49.168;9.848;2023-05-09T13:09:21;96456.94;;;26.04;61.48
40992;BME280;29633;49.168;9.848;2023-05-09T13:11:48;96447.91;;;26.05;61.60
40992;BME280;29633;49.168;9.848;2023-05-09T13:14:14;96450.22;;;26.02;61.42